sensor_id;sensor_type;location;lat;lon;timestamp;pressure;altitude;pressure_sealevel;temperature;humidity
67373;BME280;54257;54.496;18.412;2023-03-01T00:01:40;101024.73;;;0.46;91.57
67373;BME280;54257;54.496;18.412;2023-03-01T00:04:07;101024.56;;;0.48;91.55
67373;BME280;54257;54.496;18.412;2023-03-01T00:06:35;101020.72;;;0.51;91.58
67373;BME280;54257;54.496;18.412;2023-03-01T00:09:02;101021.38;;;0.53;91.51
67373;BME280;54257;54.496;18.412;2023-03-01T00:11:31;101014.99;;;0.55;91.72
67373;BME280;54257;54.496;18.412;2023-03-01T00:14:01;101012.58;;;0.57;91.62
67373;BME280;54257;54.496;18.412;2023-03-01T00:16:31;101009.80;;;0.58;91.67
67373;BME280;54257;54.496;18.412;2023-03-01T00:19:00;101007.13;;;0.58;91.47
67373;BME280;54257;54.496;18.412;2023-03-01T00:21:28;101000.77;;;0.59;91.18
67373;BME280;54257;54.496;18.412;2023-03-01T00:23:55;100999.06;;;0.58;91.48
67373;BME280;54257;54.496;18.412;2023-03-01T00:26:24;100997.70;;;0.58;91.52
67373;BME280;54257;54.496;18.412;2023-03-01T00:28:52;100995.06;;;0.56;91.35
67373;BME280;54257;54.496;18.412;2023-03-01T00:31:22;100998.05;;;0.56;91.34
67373;BME280;54257;54.496;18.412;2023-03-01T00:33:53;100996.95;;;0.55;91.44
67373;BME280;54257;54.496;18.412;2023-03-01T00:36:26;100992.46;;;0.53;91.65
67373;BME280;54257;54.496;18.412;2023-03-01T00:38:54;100985.16;;;0.52;91.96
67373;BME280;54257;54.496;18.412;2023-03-01T00:41:22;100984.39;;;0.50;92.07
67373;BME280;54257;54.496;18.412;2023-03-01T00:43:50;100982.45;;;0.49;92.20
67373;BME280;54257;54.496;18.412;2023-03-01T00:46:20;100982.67;;;0.48;92.16
67373;BME280;54257;54.496;18.412;2023-03-01T00:48:48;100974.70;;;0.47;92.13
67373;BME280;54257;54.496;18.412;2023-03-01T00:51:21;100975.67;;;0.46;92.52
67373;BME280;54257;54.496;18.412;2023-03-01T00:53:55;100969.39;;;0.45;93.03
67373;BME280;54257;54.496;18.412;2023-03-01T00:56:24;100973.47;;;0.41;93.04
67373;BME280;54257;54.496;18.412;2023-03-01T00:58:51;100975.23;;;0.40;93.34
67373;BME280;54257;54.496;18.412;2023-03-01T01:01:23;100979.62;;;0.41;93.48
67373;BME280;54257;54.496;18.412;2023-03-01T01:03:56;100977.41;;;0.40;93.78
67373;BME280;54257;54.496;18.412;2023-03-01T01:06:26;100977.23;;;0.40;93.90
67373;BME280;54257;54.496;18.412;2023-03-01T01:08:55;100974.90;;;0.40;94.22
67373;BME280;54257;54.496;18.412;2023-03-01T01:11:25;100972.77;;;0.41;94.02
67373;BME280;54257;54.496;18.412;2023-03-01T01:13:52;100970.48;;;0.42;94.17
67373;BME280;54257;54.496;18.412;2023-03-01T01:16:21;100972.86;;;0.42;94.48
67373;BME280;54257;54.496;18.412;2023-03-01T01:18:49;100970.56;;;0.43;94.82
67373;BME280;54257;54.496;18.412;2023-03-01T01:21:22;100971.61;;;0.43;95.04
67373;BME280;54257;54.496;18.412;2023-03-01T01:23:51;100975.81;;;0.44;95.65
67373;BME280;54257;54.496;18.412;2023-03-01T01:28:46;100974.63;;;0.46;96.02
67373;BME280;54257;54.496;18.412;2023-03-01T01:31:14;100975.85;;;0.46;96.08
67373;BME280;54257;54.496;18.412;2023-03-01T01:33:41;100972.25;;;0.48;96.16
67373;BME280;54257;54.496;18.412;2023-03-01T01:36:09;100968.38;;;0.50;96.11
67373;BME280;54257;54.496;18.412;2023-03-01T01:38:38;100967.43;;;0.51;95.96
67373;BME280;54257;54.496;18.412;2023-03-01T01:41:06;100959.26;;;0.51;96.14
67373;BME280;54257;54.496;18.412;2023-03-01T01:43:44;100953.05;;;0.51;96.08
67373;BME280;54257;54.496;18.412;2023-03-01T01:46:25;100953.75;;;0.52;96.40
67373;BME280;54257;54.496;18.412;2023-03-01T01:49:18;100951.48;;;0.51;96.67
67373;BME280;54257;54.496;18.412;2023-03-01T01:51:48;100947.92;;;0.50;96.66
67373;BME280;54257;54.496;18.412;2023-03-01T01:54:23;100946.24;;;0.50;96.53
67373;BME280;54257;54.496;18.412;2023-03-01T01:56:56;100946.73;;;0.50;97.01
67373;BME280;54257;54.496;18.412;2023-03-01T01:59:27;100944.81;;;0.49;97.36
67373;BME280;54257;54.496;18.412;2023-03-01T02:01:58;100945.02;;;0.50;97.33
67373;BME280;54257;54.496;18.412;2023-03-01T02:04:26;100938.23;;;0.49;97.37
67373;BME280;54257;54.496;18.412;2023-03-01T02:06:59;100939.14;;;0.50;97.38
67373;BME280;54257;54.496;18.412;2023-03-01T02:09:27;100931.92;;;0.50;97.19
67373;BME280;54257;54.496;18.412;2023-03-01T02:11:54;100927.50;;;0.47;97.71
67373;BME280;54257;54.496;18.412;2023-03-01T02:14:21;100930.02;;;0.47;97.52
67373;BME280;54257;54.496;18.412;2023-03-01T02:16:48;100931.70;;;0.47;97.76
67373;BME280;54257;54.496;18.412;2023-03-01T02:19:34;100933.59;;;0.48;97.66
67373;BME280;54257;54.496;18.412;2023-03-01T02:22:22;100930.77;;;0.48;97.66
67373;BME280;54257;54.496;18.412;2023-03-01T02:27:49;100933.67;;;0.49;97.63
67373;BME280;54257;54.496;18.412;2023-03-01T02:30:22;100926.58;;;0.48;98.01
67373;BME280;54257;54.496;18.412;2023-03-01T02:32:54;100925.78;;;0.49;98.12
67373;BME280;54257;54.496;18.412;2023-03-01T02:35:35;100920.59;;;0.49;98.37
67373;BME280;54257;54.496;18.412;2023-03-01T02:38:07;100915.45;;;0.48;99.47
67373;BME280;54257;54.496;18.412;2023-03-01T02:40:36;100910.86;;;0.47;99.25
67373;BME280;54257;54.496;18.412;2023-03-01T02:43:07;100910.52;;;0.47;99.18
67373;BME280;54257;54.496;18.412;2023-03-01T02:45:35;100911.20;;;0.47;99.15
67373;BME280;54257;54.496;18.412;2023-03-01T02:48:03;100908.13;;;0.46;99.44
67373;BME280;54257;54.496;18.412;2023-03-01T02:53:22;100910.16;;;0.47;99.51
67373;BME280;54257;54.496;18.412;2023-03-01T02:55:54;100912.11;;;0.48;99.28
67373;BME280;54257;54.496;18.412;2023-03-01T02:58:21;100909.61;;;0.48;99.53
67373;BME280;54257;54.496;18.412;2023-03-01T03:00:48;100905.23;;;0.48;99.62
67373;BME280;54257;54.496;18.412;2023-03-01T03:03:17;100897.98;;;0.48;99.64
67373;BME280;54257;54.496;18.412;2023-03-01T03:05:46;100896.93;;;0.47;99.90
67373;BME280;54257;54.496;18.412;2023-03-01T03:08:15;100898.41;;;0.47;99.76
67373;BME280;54257;54.496;18.412;2023-03-01T03:10:50;100898.59;;;0.47;99.94
67373;BME280;54257;54.496;18.412;2023-03-01T03:13:17;100894.04;;;0.47;100.00
67373;BME280;54257;54.496;18.412;2023-03-01T03:15:45;100891.80;;;0.46;100.00
67373;BME280;54257;54.496;18.412;2023-03-01T03:18:17;100888.16;;;0.47;99.98
67373;BME280;54257;54.496;18.412;2023-03-01T03:20:45;100887.50;;;0.47;99.99
67373;BME280;54257;54.496;18.412;2023-03-01T03:23:13;100887.65;;;0.47;100.00
67373;BME280;54257;54.496;18.412;2023-03-01T03:25:41;100889.70;;;0.47;100.00
67373;BME280;54257;54.496;18.412;2023-03-01T03:28:08;100882.13;;;0.47;100.00
67373;BME280;54257;54.496;18.412;2023-03-01T03:30:39;100884.15;;;0.47;100.00
67373;BME280;54257;54.496;18.412;2023-03-01T03:33:08;100878.52;;;0.46;100.00
67373;BME280;54257;54.496;18.412;2023-03-01T03:35:54;100876.44;;;0.45;100.00
67373;BME280;54257;54.496;18.412;2023-03-01T03:38:21;100871.42;;;0.45;100.00
67373;BME280;54257;54.496;18.412;2023-03-01T03:40:51;100871.23;;;0.45;100.00
67373;BME280;54257;54.496;18.412;2023-03-01T03:43:22;100874.73;;;0.45;100.00
67373;BME280;54257;54.496;18.412;2023-03-01T03:45:50;100874.09;;;0.45;100.00
67373;BME280;54257;54.496;18.412;2023-03-01T03:48:19;100874.46;;;0.46;100.00
67373;BME280;54257;54.496;18.412;2023-03-01T03:50:52;100864.91;;;0.46;100.00
67373;BME280;54257;54.496;18.412;2023-03-01T03:53:21;100863.55;;;0.46;100.00
67373;BME280;54257;54.496;18.412;2023-03-01T03:55:48;100866.90;;;0.46;100.00
67373;BME280;54257;54.496;18.412;2023-03-01T03:58:19;100860.73;;;0.46;100.00
67373;BME280;54257;54.496;18.412;2023-03-01T04:00:49;100849.34;;;0.47;100.00
67373;BME280;54257;54.496;18.412;2023-03-01T04:03:20;100846.48;;;0.47;100.00
67373;BME280;54257;54.496;18.412;2023-03-01T04:05:47;100843.80;;;0.47;100.00
67373;BME280;54257;54.496;18.412;2023-03-01T04:08:21;100847.71;;;0.48;100.00
67373;BME280;54257;54.496;18.412;2023-03-01T04:10:50;100842.17;;;0.45;100.00
67373;BME280;54257;54.496;18.412;2023-03-01T04:13:22;100846.05;;;0.48;100.00
67373;BME280;54257;54.496;18.412;2023-03-01T04:15:52;100846.43;;;0.48;100.00
67373;BME280;54257;54.496;18.412;2023-03-01T04:18:22;100853.03;;;0.49;100.00
67373;BME280;54257;54.496;18.412;2023-03-01T04:20:49;100852.60;;;0.50;100.00
67373;BME280;54257;54.496;18.412;2023-03-01T04:23:20;100854.31;;;0.50;100.00
67373;BME280;54257;54.496;18.412;2023-03-01T04:25:56;100850.98;;;0.50;100.00
67373;BME280;54257;54.496;18.412;2023-03-01T04:28:26;100850.48;;;0.51;100.00
67373;BME280;54257;54.496;18.412;2023-03-01T04:30:54;100850.85;;;0.51;100.00
67373;BME280;54257;54.496;18.412;2023-03-01T04:33:23;100848.50;;;0.51;100.00
67373;BME280;54257;54.496;18.412;2023-03-01T04:35:52;100845.55;;;0.50;100.00
67373;BME280;54257;54.496;18.412;2023-03-01T04:38:19;100844.13;;;0.49;100.00
67373;BME280;54257;54.496;18.412;2023-03-01T04:40:53;100845.75;;;0.48;100.00
67373;BME280;54257;54.496;18.412;2023-03-01T04:43:20;100843.02;;;0.48;100.00
67373;BME280;54257;54.496;18.412;2023-03-01T04:45:48;100846.70;;;0.48;100.00
67373;BME280;54257;54.496;18.412;2023-03-01T04:48:16;100847.15;;;0.49;100.00
67373;BME280;54257;54.496;18.412;2023-03-01T04:50:43;100844.62;;;0.49;100.00
67373;BME280;54257;54.496;18.412;2023-03-01T04:53:10;100841.84;;;0.50;100.00
67373;BME280;54257;54.496;18.412;2023-03-01T04:55:37;100838.66;;;0.50;100.00
67373;BME280;54257;54.496;18.412;2023-03-01T04:58:08;100841.20;;;0.50;100.00
67373;BME280;54257;54.496;18.412;2023-03-01T05:00:35;100846.56;;;0.50;100.00
67373;BME280;54257;54.496;18.412;2023-03-01T05:03:03;100848.94;;;0.50;100.00
67373;BME280;54257;54.496;18.412;2023-03-01T05:05:34;100846.06;;;0.50;100.00
67373;BME280;54257;54.496;18.412;2023-03-01T05:08:05;100846.30;;;0.51;99.90
67373;BME280;54257;54.496;18.412;2023-03-01T05:10:36;100844.48;;;0.51;99.82
67373;BME280;54257;54.496;18.412;2023-03-01T05:13:06;100846.67;;;0.52;99.86
67373;BME280;54257;54.496;18.412;2023-03-01T05:15:33;100844.91;;;0.50;99.96
67373;BME280;54257;54.496;18.412;2023-03-01T05:18:03;100845.73;;;0.48;100.00
67373;BME280;54257;54.496;18.412;2023-03-01T05:20:34;100847.15;;;0.47;100.00
67373;BME280;54257;54.496;18.412;2023-03-01T05:23:04;100850.08;;;0.48;99.92
67373;BME280;54257;54.496;18.412;2023-03-01T05:25:33;100842.55;;;0.46;99.97
67373;BME280;54257;54.496;18.412;2023-03-01T05:28:03;100844.55;;;0.46;99.97
67373;BME280;54257;54.496;18.412;2023-03-01T05:30:32;100842.29;;;0.44;99.95
67373;BME280;54257;54.496;18.412;2023-03-01T05:33:00;100845.65;;;0.44;99.99
67373;BME280;54257;54.496;18.412;2023-03-01T05:35:28;100845.61;;;0.44;99.98
67373;BME280;54257;54.496;18.412;2023-03-01T05:37:56;100846.08;;;0.43;100.00
67373;BME280;54257;54.496;18.412;2023-03-01T05:40:23;100847.16;;;0.42;100.00
67373;BME280;54257;54.496;18.412;2023-03-01T05:42:54;100845.46;;;0.42;100.00
67373;BME280;54257;54.496;18.412;2023-03-01T05:45:22;100848.63;;;0.41;100.00
67373;BME280;54257;54.496;18.412;2023-03-01T05:47:53;100845.05;;;0.38;100.00
67373;BME280;54257;54.496;18.412;2023-03-01T05:50:27;100842.80;;;0.37;100.00
67373;BME280;54257;54.496;18.412;2023-03-01T05:53:07;100842.29;;;0.37;100.00
67373;BME280;54257;54.496;18.412;2023-03-01T05:55:36;100837.56;;;0.37;100.00
67373;BME280;54257;54.496;18.412;2023-03-01T05:58:10;100833.48;;;0.36;100.00
67373;BME280;54257;54.496;18.412;2023-03-01T06:00:37;100835.33;;;0.36;100.00
67373;BME280;54257;54.496;18.412;2023-03-01T06:03:04;100836.84;;;0.37;100.00
67373;BME280;54257;54.496;18.412;2023-03-01T06:05:32;100840.84;;;0.36;100.00
67373;BME280;54257;54.496;18.412;2023-03-01T06:08:00;100846.14;;;0.35;100.00
67373;BME280;54257;54.496;18.412;2023-03-01T06:10:28;100851.47;;;0.34;100.00
67373;BME280;54257;54.496;18.412;2023-03-01T06:12:55;100854.19;;;0.35;100.00
67373;BME280;54257;54.496;18.412;2023-03-01T06:15:24;100858.23;;;0.35;100.00
67373;BME280;54257;54.496;18.412;2023-03-01T06:17:54;100862.65;;;0.36;100.00
67373;BME280;54257;54.496;18.412;2023-03-01T06:20:25;100866.00;;;0.38;100.00
67373;BME280;54257;54.496;18.412;2023-03-01T06:22:53;100864.16;;;0.40;100.00
67373;BME280;54257;54.496;18.412;2023-03-01T06:25:22;100863.05;;;0.41;100.00
67373;BME280;54257;54.496;18.412;2023-03-01T06:27:49;100864.13;;;0.42;100.00
67373;BME280;54257;54.496;18.412;2023-03-01T06:30:18;100864.84;;;0.42;100.00
67373;BME280;54257;54.496;18.412;2023-03-01T06:32:46;100867.56;;;0.43;100.00
67373;BME280;54257;54.496;18.412;2023-03-01T06:35:14;100863.42;;;0.44;100.00
67373;BME280;54257;54.496;18.412;2023-03-01T06:37:45;100869.83;;;0.44;100.00
67373;BME280;54257;54.496;18.412;2023-03-01T06:40:13;100875.73;;;0.44;100.00
67373;BME280;54257;54.496;18.412;2023-03-01T06:42:47;100883.89;;;0.46;100.00
67373;BME280;54257;54.496;18.412;2023-03-01T06:45:19;100888.52;;;0.47;100.00
67373;BME280;54257;54.496;18.412;2023-03-01T06:47:46;100887.12;;;0.49;100.00
67373;BME280;54257;54.496;18.412;2023-03-01T06:50:17;100886.23;;;0.50;100.00
67373;BME280;54257;54.496;18.412;2023-03-01T06:52:44;100888.87;;;0.52;100.00
67373;BME280;54257;54.496;18.412;2023-03-01T06:55:12;100890.39;;;0.54;100.00
67373;BME280;54257;54.496;18.412;2023-03-01T06:57:40;100884.02;;;0.60;100.00
67373;BME280;54257;54.496;18.412;2023-03-01T07:00:08;100880.88;;;0.63;100.00
67373;BME280;54257;54.496;18.412;2023-03-01T07:02:37;100882.90;;;0.67;100.00
67373;BME280;54257;54.496;18.412;2023-03-01T07:05:04;100882.69;;;0.71;100.00
67373;BME280;54257;54.496;18.412;2023-03-01T07:07:31;100883.90;;;0.76;100.00
67373;BME280;54257;54.496;18.412;2023-03-01T07:09:58;100882.00;;;0.80;100.00
67373;BME280;54257;54.496;18.412;2023-03-01T07:12:25;100883.51;;;0.86;100.00
67373;BME280;54257;54.496;18.412;2023-03-01T07:14:53;100885.76;;;0.91;100.00
67373;BME280;54257;54.496;18.412;2023-03-01T07:17:19;100885.54;;;0.96;100.00
67373;BME280;54257;54.496;18.412;2023-03-01T07:19:47;100889.02;;;0.99;100.00
67373;BME280;54257;54.496;18.412;2023-03-01T07:22:14;100889.44;;;1.05;100.00
67373;BME280;54257;54.496;18.412;2023-03-01T07:24:42;100886.25;;;1.13;100.00
67373;BME280;54257;54.496;18.412;2023-03-01T07:27:09;100887.06;;;1.22;100.00
67373;BME280;54257;54.496;18.412;2023-03-01T07:29:37;100883.17;;;1.29;100.00
67373;BME280;54257;54.496;18.412;2023-03-01T07:32:05;100884.10;;;1.38;100.00
67373;BME280;54257;54.496;18.412;2023-03-01T07:34:32;100889.91;;;1.52;100.00
67373;BME280;54257;54.496;18.412;2023-03-01T07:36:59;100893.06;;;1.63;100.00
67373;BME280;54257;54.496;18.412;2023-03-01T07:39:27;100891.95;;;1.77;100.00
67373;BME280;54257;54.496;18.412;2023-03-01T07:41:55;100890.38;;;1.89;100.00
67373;BME280;54257;54.496;18.412;2023-03-01T07:44:23;100886.48;;;2.04;100.00
67373;BME280;54257;54.496;18.412;2023-03-01T07:46:50;100891.39;;;2.25;100.00
67373;BME280;54257;54.496;18.412;2023-03-01T07:49:23;100881.39;;;2.42;100.00
67373;BME280;54257;54.496;18.412;2023-03-01T07:51:59;100876.58;;;2.59;100.00
67373;BME280;54257;54.496;18.412;2023-03-01T07:54:29;100875.90;;;2.75;100.00
67373;BME280;54257;54.496;18.412;2023-03-01T07:56:57;100880.52;;;2.90;100.00
67373;BME280;54257;54.496;18.412;2023-03-01T07:59:24;100882.85;;;3.00;100.00
67373;BME280;54257;54.496;18.412;2023-03-01T08:01:56;100878.30;;;3.17;100.00
67373;BME280;54257;54.496;18.412;2023-03-01T08:04:23;100872.38;;;3.37;100.00
67373;BME280;54257;54.496;18.412;2023-03-01T08:06:54;100866.36;;;3.54;100.00
67373;BME280;54257;54.496;18.412;2023-03-01T08:09:22;100860.96;;;3.72;100.00
67373;BME280;54257;54.496;18.412;2023-03-01T08:11:49;100860.78;;;3.86;99.19
67373;BME280;54257;54.496;18.412;2023-03-01T08:14:16;100855.20;;;4.10;99.56
67373;BME280;54257;54.496;18.412;2023-03-01T08:16:43;100857.30;;;4.41;99.97
67373;BME280;54257;54.496;18.412;2023-03-01T08:19:12;100860.46;;;4.80;100.00
67373;BME280;54257;54.496;18.412;2023-03-01T08:21:39;100861.66;;;5.15;99.46
67373;BME280;54257;54.496;18.412;2023-03-01T08:24:07;100859.70;;;5.35;96.64
67373;BME280;54257;54.496;18.412;2023-03-01T08:26:34;100861.73;;;5.55;95.49
67373;BME280;54257;54.496;18.412;2023-03-01T08:29:01;100863.33;;;5.83;94.85
67373;BME280;54257;54.496;18.412;2023-03-01T08:31:34;100860.80;;;6.00;92.49
67373;BME280;54257;54.496;18.412;2023-03-01T08:34:08;100855.30;;;6.26;92.67
67373;BME280;54257;54.496;18.412;2023-03-01T08:36:38;100852.30;;;6.41;88.19
67373;BME280;54257;54.496;18.412;2023-03-01T08:39:07;100850.17;;;6.61;89.79
67373;BME280;54257;54.496;18.412;2023-03-01T08:41:35;100852.25;;;6.95;88.81
67373;BME280;54257;54.496;18.412;2023-03-01T08:44:03;100850.00;;;7.21;86.78
67373;BME280;54257;54.496;18.412;2023-03-01T08:46:36;100849.39;;;7.45;86.08
67373;BME280;54257;54.496;18.412;2023-03-01T08:49:05;100845.86;;;7.70;85.23
67373;BME280;54257;54.496;18.412;2023-03-01T08:51:32;100844.44;;;7.93;83.70
67373;BME280;54257;54.496;18.412;2023-03-01T08:54:04;100843.48;;;8.03;81.40
67373;BME280;54257;54.496;18.412;2023-03-01T08:56:31;100844.55;;;8.25;81.52
67373;BME280;54257;54.496;18.412;2023-03-01T08:58:59;100840.55;;;8.48;79.96
67373;BME280;54257;54.496;18.412;2023-03-01T09:01:26;100842.64;;;8.66;79.95
67373;BME280;54257;54.496;18.412;2023-03-01T09:03:53;100842.84;;;8.76;76.99
67373;BME280;54257;54.496;18.412;2023-03-01T09:06:20;100843.73;;;8.77;77.06
67373;BME280;54257;54.496;18.412;2023-03-01T09:08:49;100851.11;;;9.06;77.60
67373;BME280;54257;54.496;18.412;2023-03-01T09:11:20;100853.35;;;9.29;75.47
67373;BME280;54257;54.496;18.412;2023-03-01T09:13:49;100851.75;;;9.47;74.05
67373;BME280;54257;54.496;18.412;2023-03-01T09:16:18;100850.72;;;9.62;72.69
67373;BME280;54257;54.496;18.412;2023-03-01T09:18:50;100847.89;;;9.68;71.51
67373;BME280;54257;54.496;18.412;2023-03-01T09:21:19;100851.85;;;9.74;70.73
67373;BME280;54257;54.496;18.412;2023-03-01T09:23:48;100856.46;;;9.79;70.81
67373;BME280;54257;54.496;18.412;2023-03-01T09:26:17;100855.14;;;10.11;72.16
67373;BME280;54257;54.496;18.412;2023-03-01T09:28:51;100851.13;;;10.45;71.56
67373;BME280;54257;54.496;18.412;2023-03-01T09:31:19;100849.34;;;10.70;70.31
67373;BME280;54257;54.496;18.412;2023-03-01T09:33:50;100845.48;;;10.61;64.66
67373;BME280;54257;54.496;18.412;2023-03-01T09:36:22;100848.37;;;10.02;61.78
67373;BME280;54257;54.496;18.412;2023-03-01T09:38:50;100853.08;;;9.75;65.50
67373;BME280;54257;54.496;18.412;2023-03-01T09:47:00;100843.55;;;9.96;64.88
67373;BME280;54257;54.496;18.412;2023-03-01T09:49:31;100841.61;;;9.94;65.56
67373;BME280;54257;54.496;18.412;2023-03-01T09:52:30;100842.68;;;10.16;65.18
67373;BME280;54257;54.496;18.412;2023-03-01T09:55:01;100845.73;;;10.36;65.58
67373;BME280;54257;54.496;18.412;2023-03-01T09:57:49;100847.48;;;10.70;66.02
67373;BME280;54257;54.496;18.412;2023-03-01T10:00:37;100847.98;;;11.11;64.68
67373;BME280;54257;54.496;18.412;2023-03-01T10:03:23;100850.73;;;11.10;62.96
67373;BME280;54257;54.496;18.412;2023-03-01T10:06:01;100854.58;;;11.19;62.48
67373;BME280;54257;54.496;18.412;2023-03-01T10:08:41;100852.70;;;11.32;62.51
67373;BME280;54257;54.496;18.412;2023-03-01T10:14:18;100856.45;;;11.75;61.70
67373;BME280;54257;54.496;18.412;2023-03-01T10:20:05;100847.36;;;11.87;59.05
67373;BME280;54257;54.496;18.412;2023-03-01T10:22:37;100842.33;;;11.98;59.90
67373;BME280;54257;54.496;18.412;2023-03-01T10:25:04;100839.86;;;12.02;58.82
67373;BME280;54257;54.496;18.412;2023-03-01T10:32:44;100841.17;;;11.48;56.76
67373;BME280;54257;54.496;18.412;2023-03-01T10:35:27;100840.63;;;11.35;57.34
67373;BME280;54257;54.496;18.412;2023-03-01T10:40:32;100848.45;;;11.14;59.43
67373;BME280;54257;54.496;18.412;2023-03-01T10:43:03;100839.98;;;11.36;60.38
67373;BME280;54257;54.496;18.412;2023-03-01T10:45:37;100841.66;;;11.54;59.08
67373;BME280;54257;54.496;18.412;2023-03-01T10:48:12;100840.89;;;11.50;57.85
67373;BME280;54257;54.496;18.412;2023-03-01T10:50:45;100839.09;;;11.54;58.32
67373;BME280;54257;54.496;18.412;2023-03-01T10:58:28;100841.04;;;11.50;57.93
67373;BME280;54257;54.496;18.412;2023-03-01T11:00:59;100840.08;;;11.39;58.22
67373;BME280;54257;54.496;18.412;2023-03-01T11:03:33;100843.95;;;11.56;58.45
67373;BME280;54257;54.496;18.412;2023-03-01T11:08:33;100842.95;;;11.64;56.88
67373;BME280;54257;54.496;18.412;2023-03-01T11:11:53;100841.98;;;11.59;57.45
67373;BME280;54257;54.496;18.412;2023-03-01T11:14:07;100841.52;;;11.55;57.26
67373;BME280;54257;54.496;18.412;2023-03-01T11:16:41;100842.37;;;11.61;57.67
67373;BME280;54257;54.496;18.412;2023-03-01T11:21:44;100836.33;;;11.53;56.91
67373;BME280;54257;54.496;18.412;2023-03-01T11:24:16;100829.22;;;11.36;56.98
67373;BME280;54257;54.496;18.412;2023-03-01T11:26:50;100831.35;;;11.15;57.04
67373;BME280;54257;54.496;18.412;2023-03-01T11:29:32;100832.77;;;11.10;58.24
67373;BME280;54257;54.496;18.412;2023-03-01T11:32:03;100825.13;;;11.24;58.18
67373;BME280;54257;54.496;18.412;2023-03-01T11:37:16;100814.69;;;11.31;57.80
67373;BME280;54257;54.496;18.412;2023-03-01T11:40:05;100807.43;;;11.47;58.69
67373;BME280;54257;54.496;18.412;2023-03-01T11:45:38;100806.54;;;11.59;56.81
67373;BME280;54257;54.496;18.412;2023-03-01T11:56:57;100817.11;;;10.89;58.65
67373;BME280;54257;54.496;18.412;2023-03-01T12:10:57;100817.52;;;11.92;59.24
67373;BME280;54257;54.496;18.412;2023-03-01T12:22:30;100808.48;;;12.44;57.02
67373;BME280;54257;54.496;18.412;2023-03-01T12:33:57;100794.45;;;12.76;55.13
67373;BME280;54257;54.496;18.412;2023-03-01T12:47:37;100783.44;;;12.90;54.84
67373;BME280;54257;54.496;18.412;2023-03-01T12:50:23;100784.60;;;12.89;53.68
67373;BME280;54257;54.496;18.412;2023-03-01T12:52:56;100782.53;;;12.88;54.41
67373;BME280;54257;54.496;18.412;2023-03-01T12:55:38;100778.92;;;12.97;54.32
67373;BME280;54257;54.496;18.412;2023-03-01T13:04:12;100778.05;;;13.38;53.49
67373;BME280;54257;54.496;18.412;2023-03-01T13:12:03;100767.30;;;13.32;51.58
67373;BME280;54257;54.496;18.412;2023-03-01T13:14:36;100769.63;;;13.20;51.86
67373;BME280;54257;54.496;18.412;2023-03-01T13:17:03;100776.05;;;13.16;52.76
67373;BME280;54257;54.496;18.412;2023-03-01T13:19:31;100775.66;;;13.13;52.41
67373;BME280;54257;54.496;18.412;2023-03-01T13:21:59;100772.98;;;13.07;52.53
67373;BME280;54257;54.496;18.412;2023-03-01T13:29:53;100770.86;;;12.96;52.40
67373;BME280;54257;54.496;18.412;2023-03-01T13:32:27;100763.81;;;12.86;52.62
67373;BME280;54257;54.496;18.412;2023-03-01T13:37:37;100769.67;;;12.63;52.99
67373;BME280;54257;54.496;18.412;2023-03-01T13:42:53;100765.64;;;12.21;53.29
67373;BME280;54257;54.496;18.412;2023-03-01T13:45:39;100762.52;;;12.04;53.71
67373;BME280;54257;54.496;18.412;2023-03-01T13:48:30;100762.84;;;11.83;54.65
67373;BME280;54257;54.496;18.412;2023-03-01T13:51:01;100767.10;;;11.68;55.08
67373;BME280;54257;54.496;18.412;2023-03-01T13:53:34;100766.59;;;11.55;55.95
67373;BME280;54257;54.496;18.412;2023-03-01T13:56:15;100763.37;;;11.49;56.34
67373;BME280;54257;54.496;18.412;2023-03-01T13:59:04;100759.45;;;11.44;56.91
67373;BME280;54257;54.496;18.412;2023-03-01T14:01:35;100764.95;;;11.32;56.60
67373;BME280;54257;54.496;18.412;2023-03-01T14:04:03;100764.39;;;11.24;57.48
67373;BME280;54257;54.496;18.412;2023-03-01T14:06:44;100762.31;;;11.29;57.76
67373;BME280;54257;54.496;18.412;2023-03-01T14:09:26;100758.33;;;11.27;57.66
67373;BME280;54257;54.496;18.412;2023-03-01T14:20:18;100753.40;;;10.61;57.73
67373;BME280;54257;54.496;18.412;2023-03-01T14:22:47;100749.86;;;10.39;58.26
67373;BME280;54257;54.496;18.412;2023-03-01T14:28:00;100751.75;;;9.97;59.00
67373;BME280;54257;54.496;18.412;2023-03-01T14:30:37;100751.71;;;9.80;59.40
67373;BME280;54257;54.496;18.412;2023-03-01T14:33:24;100757.63;;;9.62;59.82
67373;BME280;54257;54.496;18.412;2023-03-01T14:35:55;100754.90;;;9.42;60.26
67373;BME280;54257;54.496;18.412;2023-03-01T14:38:44;100750.41;;;9.31;60.91
67373;BME280;54257;54.496;18.412;2023-03-01T14:41:15;100754.88;;;9.21;61.22
67373;BME280;54257;54.496;18.412;2023-03-01T14:43:45;100757.06;;;9.11;61.59
67373;BME280;54257;54.496;18.412;2023-03-01T14:46:25;100754.02;;;8.93;61.88
67373;BME280;54257;54.496;18.412;2023-03-01T14:49:01;100758.95;;;8.74;62.16
67373;BME280;54257;54.496;18.412;2023-03-01T14:51:29;100756.77;;;8.61;62.53
67373;BME280;54257;54.496;18.412;2023-03-01T14:53:56;100756.11;;;8.52;62.87
67373;BME280;54257;54.496;18.412;2023-03-01T14:56:23;100750.98;;;8.48;63.16
67373;BME280;54257;54.496;18.412;2023-03-01T14:58:52;100750.80;;;8.42;63.63
67373;BME280;54257;54.496;18.412;2023-03-01T15:01:19;100754.77;;;8.35;64.02
67373;BME280;54257;54.496;18.412;2023-03-01T15:03:48;100755.76;;;8.30;64.28
67373;BME280;54257;54.496;18.412;2023-03-01T15:06:18;100758.45;;;8.25;64.16
67373;BME280;54257;54.496;18.412;2023-03-01T15:08:49;100755.36;;;8.20;64.37
67373;BME280;54257;54.496;18.412;2023-03-01T15:11:30;100750.64;;;8.12;64.38